sensor_id;sensor_type;location;lat;lon;timestamp;pressure;altitude;pressure_sealevel;temperature;humidity
64352;BME280;50680;52.626;-8.668;2022-07-30T00:01:51;101653.47;;;16.84;100.00
64352;BME280;50680;52.626;-8.668;2022-07-30T00:04:18;101662.88;;;16.88;100.00
64352;BME280;50680;52.626;-8.668;2022-07-30T00:06:45;101657.69;;;16.87;100.00
64352;BME280;50680;52.626;-8.668;2022-07-30T00:09:12;101642.03;;;16.84;100.00
64352;BME280;50680;52.626;-8.668;2022-07-30T00:11:39;101654.38;;;16.83;100.00
64352;BME280;50680;52.626;-8.668;2022-07-30T00:14:06;101650.88;;;16.83;100.00
64352;BME280;50680;52.626;-8.668;2022-07-30T00:16:33;101650.06;;;16.82;100.00
64352;BME280;50680;52.626;-8.668;2022-07-30T00:19:00;101643.03;;;16.81;100.00
64352;BME280;50680;52.626;-8.668;2022-07-30T00:21:28;101644.03;;;16.80;100.00
64352;BME280;50680;52.626;-8.668;2022-07-30T00:24:05;101623.56;;;16.69;100.00
64352;BME280;50680;52.626;-8.668;2022-07-30T00:26:34;101645.06;;;16.78;100.00
64352;BME280;50680;52.626;-8.668;2022-07-30T00:29:01;101646.16;;;16.75;100.00
64352;BME280;50680;52.626;-8.668;2022-07-30T00:31:28;101646.97;;;16.76;100.00
64352;BME280;50680;52.626;-8.668;2022-07-30T00:33:55;101646.16;;;16.75;100.00
64352;BME280;50680;52.626;-8.668;2022-07-30T00:36:22;101645.28;;;16.74;100.00
64352;BME280;50680;52.626;-8.668;2022-07-30T00:38:49;101640.84;;;16.75;100.00
64352;BME280;50680;52.626;-8.668;2022-07-30T00:41:16;101627.09;;;16.70;100.00
64352;BME280;50680;52.626;-8.668;2022-07-30T00:43:43;101622.84;;;16.67;100.00
64352;BME280;50680;52.626;-8.668;2022-07-30T00:46:10;101629.50;;;16.73;100.00
64352;BME280;50680;52.626;-8.668;2022-07-30T00:48:38;101633.94;;;16.72;100.00
64352;BME280;50680;52.626;-8.668;2022-07-30T00:51:05;101634.94;;;16.71;100.00
64352;BME280;50680;52.626;-8.668;2022-07-30T00:53:33;101633.94;;;16.72;100.00
64352;BME280;50680;52.626;-8.668;2022-07-30T00:56:00;101631.41;;;16.71;100.00
64352;BME280;50680;52.626;-8.668;2022-07-30T00:58:28;101634.06;;;16.71;100.00
64352;BME280;50680;52.626;-8.668;2022-07-30T01:00:55;101630.56;;;16.70;100.00
64352;BME280;50680;52.626;-8.668;2022-07-30T01:03:22;101624.34;;;16.71;100.00
64352;BME280;50680;52.626;-8.668;2022-07-30T01:05:49;101629.84;;;16.68;100.00
64352;BME280;50680;52.626;-8.668;2022-07-30T01:08:17;101625.38;;;16.69;100.00
64352;BME280;50680;52.626;-8.668;2022-07-30T01:10:44;101631.50;;;16.69;100.00
64352;BME280;50680;52.626;-8.668;2022-07-30T01:13:11;101635.97;;;16.69;100.00
64352;BME280;50680;52.626;-8.668;2022-07-30T01:15:38;101630.69;;;16.69;100.00
64352;BME280;50680;52.626;-8.668;2022-07-30T01:18:07;101618.50;;;16.66;100.00
64352;BME280;50680;52.626;-8.668;2022-07-30T01:21:06;101603.47;;;16.54;100.00
64352;BME280;50680;52.626;-8.668;2022-07-30T01:23:38;101620.09;;;16.69;100.00
64352;BME280;50680;52.626;-8.668;2022-07-30T01:26:11;101623.66;;;16.68;100.00
64352;BME280;50680;52.626;-8.668;2022-07-30T01:28:47;101614.38;;;16.62;100.00
64352;BME280;50680;52.626;-8.668;2022-07-30T01:31:16;101612.34;;;16.66;100.00
64352;BME280;50680;52.626;-8.668;2022-07-30T01:33:46;101621.78;;;16.70;100.00
64352;BME280;50680;52.626;-8.668;2022-07-30T01:36:16;101629.63;;;16.71;100.00
64352;BME280;50680;52.626;-8.668;2022-07-30T01:38:44;101617.34;;;16.70;100.00
64352;BME280;50680;52.626;-8.668;2022-07-30T01:41:13;101617.34;;;16.70;100.00
64352;BME280;50680;52.626;-8.668;2022-07-30T01:43:42;101615.63;;;16.69;100.00
64352;BME280;50680;52.626;-8.668;2022-07-30T01:46:11;101615.63;;;16.69;100.00
64352;BME280;50680;52.626;-8.668;2022-07-30T01:48:41;101602.72;;;16.65;100.00
64352;BME280;50680;52.626;-8.668;2022-07-30T01:51:10;101599.00;;;16.67;100.00
64352;BME280;50680;52.626;-8.668;2022-07-30T01:53:39;101607.78;;;16.68;100.00
64352;BME280;50680;52.626;-8.668;2022-07-30T01:56:08;101599.84;;;16.68;100.00
64352;BME280;50680;52.626;-8.668;2022-07-30T01:58:38;101600.72;;;16.68;100.00
64352;BME280;50680;52.626;-8.668;2022-07-30T02:01:06;101608.66;;;16.68;100.00
64352;BME280;50680;52.626;-8.668;2022-07-30T02:03:33;101598.91;;;16.69;100.00
64352;BME280;50680;52.626;-8.668;2022-07-30T02:06:07;101600.09;;;16.65;100.00
64352;BME280;50680;52.626;-8.668;2022-07-30T02:08:43;101595.31;;;16.70;100.00
64352;BME280;50680;52.626;-8.668;2022-07-30T02:11:14;101593.91;;;16.64;100.00
64352;BME280;50680;52.626;-8.668;2022-07-30T02:13:49;101594.69;;;16.66;100.00
64352;BME280;50680;52.626;-8.668;2022-07-30T02:16:26;101591.06;;;16.67;100.00
64352;BME280;50680;52.626;-8.668;2022-07-30T02:19:01;101599.84;;;16.68;100.00
64352;BME280;50680;52.626;-8.668;2022-07-30T02:21:36;101596.34;;;16.67;100.00
64352;BME280;50680;52.626;-8.668;2022-07-30T02:24:09;101605.03;;;16.69;100.00
64352;BME280;50680;52.626;-8.668;2022-07-30T02:26:38;101601.75;;;16.66;100.00
64352;BME280;50680;52.626;-8.668;2022-07-30T02:29:07;101611.19;;;16.70;100.00
64352;BME280;50680;52.626;-8.668;2022-07-30T02:31:37;101611.19;;;16.70;100.00
64352;BME280;50680;52.626;-8.668;2022-07-30T02:34:08;101598.91;;;16.69;100.00
64352;BME280;50680;52.626;-8.668;2022-07-30T02:36:36;101598.06;;;16.68;100.00
64352;BME280;50680;52.626;-8.668;2022-07-30T02:39:05;101591.06;;;16.67;100.00
64352;BME280;50680;52.626;-8.668;2022-07-30T02:41:34;101599.97;;;16.66;100.00
64352;BME280;50680;52.626;-8.668;2022-07-30T02:44:04;101592.97;;;16.65;100.00
64352;BME280;50680;52.626;-8.668;2022-07-30T02:46:33;101586.84;;;16.65;100.00
64352;BME280;50680;52.626;-8.668;2022-07-30T02:49:02;101598.38;;;16.64;100.00
64352;BME280;50680;52.626;-8.668;2022-07-30T02:51:32;101595.72;;;16.64;100.00
64352;BME280;50680;52.626;-8.668;2022-07-30T02:54:00;101597.44;;;16.65;100.00
64352;BME280;50680;52.626;-8.668;2022-07-30T02:56:30;101588.09;;;16.59;100.00
64352;BME280;50680;52.626;-8.668;2022-07-30T02:58:58;101599.09;;;16.66;100.00
64352;BME280;50680;52.626;-8.668;2022-07-30T03:01:28;101587.69;;;16.65;100.00
64352;BME280;50680;52.626;-8.668;2022-07-30T03:03:57;101592.97;;;16.65;100.00
64352;BME280;50680;52.626;-8.668;2022-07-30T03:06:24;101596.47;;;16.66;100.00
64352;BME280;50680;52.626;-8.668;2022-07-30T03:08:52;101587.69;;;16.65;100.00
64352;BME280;50680;52.626;-8.668;2022-07-30T03:11:21;101583.22;;;16.66;100.00
64352;BME280;50680;52.626;-8.668;2022-07-30T03:13:49;101592.13;;;16.65;100.00
64352;BME280;50680;52.626;-8.668;2022-07-30T03:16:18;101584.19;;;16.65;100.00
64352;BME280;50680;52.626;-8.668;2022-07-30T03:18:48;101593.81;;;16.66;100.00
64352;BME280;50680;52.626;-8.668;2022-07-30T03:21:16;101591.06;;;16.67;100.00
64352;BME280;50680;52.626;-8.668;2022-07-30T03:23:45;101581.44;;;16.66;100.00
64352;BME280;50680;52.626;-8.668;2022-07-30T03:26:13;101574.53;;;16.64;100.00
64352;BME280;50680;52.626;-8.668;2022-07-30T03:28:42;101585.75;;;16.67;100.00
64352;BME280;50680;52.626;-8.668;2022-07-30T03:31:09;101591.06;;;16.67;100.00
64352;BME280;50680;52.626;-8.668;2022-07-30T03:33:37;101591.91;;;16.68;100.00
64352;BME280;50680;52.626;-8.668;2022-07-30T03:36:07;101593.59;;;16.69;100.00
64352;BME280;50680;52.626;-8.668;2022-07-30T03:38:36;101592.66;;;16.70;100.00
64352;BME280;50680;52.626;-8.668;2022-07-30T03:41:06;101599.72;;;16.69;100.00
64352;BME280;50680;52.626;-8.668;2022-07-30T03:43:34;101591.91;;;16.68;100.00
64352;BME280;50680;52.626;-8.668;2022-07-30T03:46:03;101590.94;;;16.69;100.00
64352;BME280;50680;52.626;-8.668;2022-07-30T03:48:32;101576.88;;;16.68;100.00
64352;BME280;50680;52.626;-8.668;2022-07-30T03:51:01;101576.88;;;16.68;100.00
64352;BME280;50680;52.626;-8.668;2022-07-30T03:53:30;101577.72;;;16.69;100.00
64352;BME280;50680;52.626;-8.668;2022-07-30T03:55:58;101577.81;;;16.67;100.00
64352;BME280;50680;52.626;-8.668;2022-07-30T03:58:25;101583.00;;;16.69;100.00
64352;BME280;50680;52.626;-8.668;2022-07-30T04:00:57;101582.28;;;16.67;100.00
64352;BME280;50680;52.626;-8.668;2022-07-30T04:03:29;101582.50;;;16.64;100.00
64352;BME280;50680;52.626;-8.668;2022-07-30T04:05:57;101594.69;;;16.66;100.00
64352;BME280;50680;52.626;-8.668;2022-07-30T04:08:24;101600.09;;;16.65;100.00
64352;BME280;50680;52.626;-8.668;2022-07-30T04:10:51;101601.03;;;16.64;100.00
64352;BME280;50680;52.626;-8.668;2022-07-30T04:13:18;101605.50;;;16.63;100.00
64352;BME280;50680;52.626;-8.668;2022-07-30T04:16:09;101592.34;;;16.62;100.00
64352;BME280;50680;52.626;-8.668;2022-07-30T04:19:00;101590.66;;;16.61;100.00
64352;BME280;50680;52.626;-8.668;2022-07-30T04:21:31;101598.69;;;16.59;100.00
64352;BME280;50680;52.626;-8.668;2022-07-30T04:23:59;101597.84;;;16.59;100.00
64352;BME280;50680;52.626;-8.668;2022-07-30T04:26:33;101600.59;;;16.57;100.00
64352;BME280;50680;52.626;-8.668;2022-07-30T04:29:04;101595.31;;;16.57;100.00
64352;BME280;50680;52.626;-8.668;2022-07-30T04:31:31;101589.41;;;16.53;100.00
64352;BME280;50680;52.626;-8.668;2022-07-30T04:34:06;101599.88;;;16.55;100.00
64352;BME280;50680;52.626;-8.668;2022-07-30T04:36:34;101599.25;;;16.51;100.00
64352;BME280;50680;52.626;-8.668;2022-07-30T04:39:04;101606.00;;;16.55;100.00
64352;BME280;50680;52.626;-8.668;2022-07-30T04:41:31;101590.13;;;16.55;100.00
64352;BME280;50680;52.626;-8.668;2022-07-30T04:44:14;101581.34;;;16.55;100.00
64352;BME280;50680;52.626;-8.668;2022-07-30T04:46:41;101584.84;;;16.55;100.00
64352;BME280;50680;52.626;-8.668;2022-07-30T04:49:10;101582.19;;;16.55;100.00
64352;BME280;50680;52.626;-8.668;2022-07-30T04:51:38;101586.00;;;16.51;100.00
64352;BME280;50680;52.626;-8.668;2022-07-30T04:54:08;101594.47;;;16.57;100.00
64352;BME280;50680;52.626;-8.668;2022-07-30T04:56:44;101599.78;;;16.57;100.00
64352;BME280;50680;52.626;-8.668;2022-07-30T04:59:26;101588.34;;;16.56;100.00
64352;BME280;50680;52.626;-8.668;2022-07-30T05:01:55;101584.31;;;16.50;100.00
64352;BME280;50680;52.626;-8.668;2022-07-30T05:04:23;101583.25;;;16.53;100.00
64352;BME280;50680;52.626;-8.668;2022-07-30T05:06:51;101592.56;;;16.59;100.00
64352;BME280;50680;52.626;-8.668;2022-07-30T05:09:19;101590.88;;;16.58;100.00
64352;BME280;50680;52.626;-8.668;2022-07-30T05:11:53;101575.00;;;16.58;100.00
64352;BME280;50680;52.626;-8.668;2022-07-30T05:14:21;101582.81;;;16.59;100.00
64352;BME280;50680;52.626;-8.668;2022-07-30T05:16:50;101585.47;;;16.59;100.00
64352;BME280;50680;52.626;-8.668;2022-07-30T05:19:18;101589.19;;;16.57;100.00
64352;BME280;50680;52.626;-8.668;2022-07-30T05:21:45;101590.66;;;16.61;100.00
64352;BME280;50680;52.626;-8.668;2022-07-30T05:24:13;101590.03;;;16.57;100.00
64352;BME280;50680;52.626;-8.668;2022-07-30T05:26:40;101596.69;;;16.63;100.00
64352;BME280;50680;52.626;-8.668;2022-07-30T05:29:07;101593.91;;;16.64;100.00
64352;BME280;50680;52.626;-8.668;2022-07-30T05:31:45;101586.84;;;16.65;100.00
64352;BME280;50680;52.626;-8.668;2022-07-30T05:34:12;101593.81;;;16.66;100.00
64352;BME280;50680;52.626;-8.668;2022-07-30T05:36:39;101587.56;;;16.67;100.00
64352;BME280;50680;52.626;-8.668;2022-07-30T05:39:05;101579.63;;;16.67;100.00
64352;BME280;50680;52.626;-8.668;2022-07-30T05:41:32;101590.94;;;16.69;100.00
64352;BME280;50680;52.626;-8.668;2022-07-30T05:44:00;101590.00;;;16.70;100.00
64352;BME280;50680;52.626;-8.668;2022-07-30T05:46:27;101584.19;;;16.65;100.00
64352;BME280;50680;52.626;-8.668;2022-07-30T05:48:56;101590.84;;;16.70;100.00
64352;BME280;50680;52.626;-8.668;2022-07-30T05:51:24;101591.69;;;16.71;100.00
64352;BME280;50680;52.626;-8.668;2022-07-30T05:53:51;101585.56;;;16.70;100.00
64352;BME280;50680;52.626;-8.668;2022-07-30T05:56:18;101589.91;;;16.71;100.00
64352;BME280;50680;52.626;-8.668;2022-07-30T05:58:45;101590.75;;;16.72;100.00
64352;BME280;50680;52.626;-8.668;2022-07-30T06:01:12;101580.88;;;16.74;100.00
64352;BME280;50680;52.626;-8.668;2022-07-30T06:03:39;101592.31;;;16.74;100.00
64352;BME280;50680;52.626;-8.668;2022-07-30T06:06:06;101588.63;;;16.77;100.00
64352;BME280;50680;52.626;-8.668;2022-07-30T06:08:34;101582.34;;;16.78;100.00
64352;BME280;50680;52.626;-8.668;2022-07-30T06:11:01;101590.19;;;16.80;100.00
64352;BME280;50680;52.626;-8.668;2022-07-30T06:13:28;101589.34;;;16.79;100.00
64352;BME280;50680;52.626;-8.668;2022-07-30T06:15:55;101591.03;;;16.80;100.00
64352;BME280;50680;52.626;-8.668;2022-07-30T06:18:22;101584.03;;;16.79;100.00
64352;BME280;50680;52.626;-8.668;2022-07-30T06:20:50;101593.56;;;16.82;100.00
64352;BME280;50680;52.626;-8.668;2022-07-30T06:23:18;101590.81;;;16.83;100.00
64352;BME280;50680;52.626;-8.668;2022-07-30T06:25:46;101585.50;;;16.83;100.00
64352;BME280;50680;52.626;-8.668;2022-07-30T06:28:14;101577.56;;;16.83;100.00
64352;BME280;50680;52.626;-8.668;2022-07-30T06:31:01;101570.41;;;16.85;100.00
64352;BME280;50680;52.626;-8.668;2022-07-30T06:33:28;101571.13;;;16.87;100.00
64352;BME280;50680;52.626;-8.668;2022-07-30T06:35:55;101572.69;;;16.90;100.00
64352;BME280;50680;52.626;-8.668;2022-07-30T06:38:22;101567.28;;;16.91;100.00
64352;BME280;50680;52.626;-8.668;2022-07-30T06:40:49;101573.31;;;16.94;100.00
64352;BME280;50680;52.626;-8.668;2022-07-30T06:43:16;101581.16;;;16.95;100.00
64352;BME280;50680;52.626;-8.668;2022-07-30T06:45:45;101575.75;;;16.97;100.00
64352;BME280;50680;52.626;-8.668;2022-07-30T06:48:12;101574.06;;;16.96;100.00
64352;BME280;50680;52.626;-8.668;2022-07-30T06:50:39;101582.00;;;16.96;100.00
64352;BME280;50680;52.626;-8.668;2022-07-30T06:53:07;101585.41;;;16.98;100.00
64352;BME280;50680;52.626;-8.668;2022-07-30T06:55:34;101591.53;;;16.98;100.00
64352;BME280;50680;52.626;-8.668;2022-07-30T06:58:01;101580.94;;;16.98;100.00
64352;BME280;50680;52.626;-8.668;2022-07-30T07:00:28;101588.78;;;17.00;100.00
64352;BME280;50680;52.626;-8.668;2022-07-30T07:02:55;101586.97;;;17.00;100.00
64352;BME280;50680;52.626;-8.668;2022-07-30T07:05:22;101575.53;;;17.00;100.00
64352;BME280;50680;52.626;-8.668;2022-07-30T07:07:49;101577.22;;;17.01;100.00
64352;BME280;50680;52.626;-8.668;2022-07-30T07:10:25;101578.91;;;17.02;100.00
64352;BME280;50680;52.626;-8.668;2022-07-30T07:12:52;101569.16;;;17.02;100.00
64352;BME280;50680;52.626;-8.668;2022-07-30T07:15:19;101584.00;;;17.05;100.00
64352;BME280;50680;52.626;-8.668;2022-07-30T07:18:02;101569.16;;;17.02;100.00
64352;BME280;50680;52.626;-8.668;2022-07-30T07:20:29;101582.81;;;17.09;100.00
64352;BME280;50680;52.626;-8.668;2022-07-30T07:22:56;101575.72;;;17.09;100.00
64352;BME280;50680;52.626;-8.668;2022-07-30T07:25:23;101571.03;;;17.13;100.00
64352;BME280;50680;52.626;-8.668;2022-07-30T07:27:50;101584.03;;;17.16;100.00
64352;BME280;50680;52.626;-8.668;2022-07-30T07:30:37;101576.72;;;17.20;100.00
64352;BME280;50680;52.626;-8.668;2022-07-30T07:33:04;101579.03;;;17.24;100.00
64352;BME280;50680;52.626;-8.668;2022-07-30T07:35:32;101572.69;;;17.27;100.00
64352;BME280;50680;52.626;-8.668;2022-07-30T07:38:15;101577.50;;;17.33;100.00
64352;BME280;50680;52.626;-8.668;2022-07-30T07:40:42;101575.47;;;17.37;100.00
64352;BME280;50680;52.626;-8.668;2022-07-30T07:43:09;101569.84;;;17.41;100.00
64352;BME280;50680;52.626;-8.668;2022-07-30T07:45:36;101567.56;;;17.48;100.00
64352;BME280;50680;52.626;-8.668;2022-07-30T07:48:03;101572.66;;;17.62;100.00
64352;BME280;50680;52.626;-8.668;2022-07-30T07:50:30;101561.72;;;17.78;100.00
64352;BME280;50680;52.626;-8.668;2022-07-30T07:52:57;101569.66;;;17.91;100.00
64352;BME280;50680;52.626;-8.668;2022-07-30T07:55:24;101571.34;;;18.03;100.00
64352;BME280;50680;52.626;-8.668;2022-07-30T07:57:52;101574.25;;;18.12;100.00
64352;BME280;50680;52.626;-8.668;2022-07-30T08:00:19;101578.97;;;18.19;100.00
64352;BME280;50680;52.626;-8.668;2022-07-30T08:02:47;101573.88;;;18.16;100.00
64352;BME280;50680;52.626;-8.668;2022-07-30T08:05:15;101582.56;;;18.18;100.00
64352;BME280;50680;52.626;-8.668;2022-07-30T08:07:43;101579.56;;;18.12;100.00
64352;BME280;50680;52.626;-8.668;2022-07-30T08:10:11;101574.13;;;18.13;100.00
64352;BME280;50680;52.626;-8.668;2022-07-30T08:12:40;101573.78;;;18.18;100.00
64352;BME280;50680;52.626;-8.668;2022-07-30T08:15:08;101568.13;;;18.22;100.00
64352;BME280;50680;52.626;-8.668;2022-07-30T08:17:42;101574.50;;;18.31;100.00
64352;BME280;50680;52.626;-8.668;2022-07-30T08:20:10;101573.31;;;18.47;100.00
64352;BME280;50680;52.626;-8.668;2022-07-30T08:22:37;101576.19;;;18.55;100.00
64352;BME280;50680;52.626;-8.668;2022-07-30T08:25:04;101575.94;;;18.58;100.00
64352;BME280;50680;52.626;-8.668;2022-07-30T08:27:31;101570.38;;;18.61;100.00
64352;BME280;50680;52.626;-8.668;2022-07-30T08:30:06;101568.22;;;18.66;100.00
64352;BME280;50680;52.626;-8.668;2022-07-30T08:32:34;101556.00;;;18.75;100.00
64352;BME280;50680;52.626;-8.668;2022-07-30T08:35:02;101565.34;;;19.13;100.00
64352;BME280;50680;52.626;-8.668;2022-07-30T08:37:30;101565.47;;;19.44;100.00
64352;BME280;50680;52.626;-8.668;2022-07-30T08:39:57;101564.66;;;19.85;100.00
64352;BME280;50680;52.626;-8.668;2022-07-30T08:42:26;101568.63;;;20.22;100.00
64352;BME280;50680;52.626;-8.668;2022-07-30T08:44:54;101552.50;;;20.54;100.00
64352;BME280;50680;52.626;-8.668;2022-07-30T08:47:27;101561.88;;;21.09;100.00
64352;BME280;50680;52.626;-8.668;2022-07-30T08:49:57;101552.63;;;21.52;100.00
64352;BME280;50680;52.626;-8.668;2022-07-30T08:52:27;101553.88;;;21.67;100.00
64352;BME280;50680;52.626;-8.668;2022-07-30T08:54:54;101555.44;;;21.70;100.00
64352;BME280;50680;52.626;-8.668;2022-07-30T08:57:21;101561.06;;;21.57;100.00
64352;BME280;50680;52.626;-8.668;2022-07-30T08:59:49;101556.97;;;21.43;100.00
64352;BME280;50680;52.626;-8.668;2022-07-30T09:02:29;101555.16;;;21.24;100.00
64352;BME280;50680;52.626;-8.668;2022-07-30T09:04:57;101562.47;;;21.02;100.00
64352;BME280;50680;52.626;-8.668;2022-07-30T09:07:24;101564.38;;;20.81;100.00
64352;BME280;50680;52.626;-8.668;2022-07-30T09:09:51;101571.94;;;20.66;100.00
64352;BME280;50680;52.626;-8.668;2022-07-30T09:12:44;101577.13;;;20.37;100.00
64352;BME280;50680;52.626;-8.668;2022-07-30T09:15:13;101577.06;;;20.27;100.00
64352;BME280;50680;52.626;-8.668;2022-07-30T09:17:48;101574.78;;;20.13;100.00
64352;BME280;50680;52.626;-8.668;2022-07-30T09:20:16;101581.88;;;20.12;100.00
64352;BME280;50680;52.626;-8.668;2022-07-30T09:22:50;101583.16;;;20.08;100.00
64352;BME280;50680;52.626;-8.668;2022-07-30T09:28:07;101582.75;;;19.91;100.00
64352;BME280;50680;52.626;-8.668;2022-07-30T09:30:52;101567.00;;;19.79;100.00
64352;BME280;50680;52.626;-8.668;2022-07-30T09:33:32;101572.69;;;19.74;100.00
64352;BME280;50680;52.626;-8.668;2022-07-30T09:36:00;101576.94;;;19.65;100.00
64352;BME280;50680;52.626;-8.668;2022-07-30T09:38:27;101584.47;;;19.60;100.00
64352;BME280;50680;52.626;-8.668;2022-07-30T09:40:55;101587.78;;;19.52;100.00
64352;BME280;50680;52.626;-8.668;2022-07-30T09:43:23;101580.91;;;19.50;100.00
64352;BME280;50680;52.626;-8.668;2022-07-30T09:45:55;101577.28;;;19.51;100.00
64352;BME280;50680;52.626;-8.668;2022-07-30T09:48:25;101581.94;;;19.59;100.00
64352;BME280;50680;52.626;-8.668;2022-07-30T09:50:54;101582.56;;;19.62;100.00
64352;BME280;50680;52.626;-8.668;2022-07-30T09:53:23;101592.91;;;19.65;100.00
64352;BME280;50680;52.626;-8.668;2022-07-30T09:55:50;101591.38;;;19.63;100.00
64352;BME280;50680;52.626;-8.668;2022-07-30T09:58:17;101591.59;;;19.71;100.00
64352;BME280;50680;52.626;-8.668;2022-07-30T10:00:56;101565.91;;;19.81;100.00
64352;BME280;50680;52.626;-8.668;2022-07-30T10:03:26;101572.94;;;20.13;100.00
64352;BME280;50680;52.626;-8.668;2022-07-30T10:06:08;101577.75;;;20.60;100.00
64352;BME280;50680;52.626;-8.668;2022-07-30T10:08:48;101585.19;;;21.07;100.00
64352;BME280;50680;52.626;-8.668;2022-07-30T10:11:19;101590.81;;;21.33;100.00
64352;BME280;50680;52.626;-8.668;2022-07-30T10:13:56;101594.19;;;21.35;100.00
64352;BME280;50680;52.626;-8.668;2022-07-30T10:16:26;101577.47;;;21.42;100.00
64352;BME280;50680;52.626;-8.668;2022-07-30T10:18:55;101575.78;;;21.41;100.00
64352;BME280;50680;52.626;-8.668;2022-07-30T10:21:24;101573.94;;;21.42;100.00
64352;BME280;50680;52.626;-8.668;2022-07-30T10:23:52;101582.94;;;21.31;100.00
64352;BME280;50680;52.626;-8.668;2022-07-30T10:26:20;101583.09;;;21.20;100.00
64352;BME280;50680;52.626;-8.668;2022-07-30T10:28:48;101587.31;;;21.13;100.00
64352;BME280;50680;52.626;-8.668;2022-07-30T10:31:18;101597.53;;;21.08;100.00
64352;BME280;50680;52.626;-8.668;2022-07-30T10:34:05;101605.66;;;20.96;100.00
64352;BME280;50680;52.626;-8.668;2022-07-30T10:36:34;101605.91;;;20.93;100.00
64352;BME280;50680;52.626;-8.668;2022-07-30T10:39:02;101605.09;;;20.93;100.00
64352;BME280;50680;52.626;-8.668;2022-07-30T10:41:46;101603.69;;;20.89;100.00
64352;BME280;50680;52.626;-8.668;2022-07-30T10:47:24;101597.13;;;21.22;100.00
64352;BME280;50680;52.626;-8.668;2022-07-30T10:50:08;101594.47;;;21.41;100.00
64352;BME280;50680;52.626;-8.668;2022-07-30T10:55:13;101590.81;;;21.42;100.00
64352;BME280;50680;52.626;-8.668;2022-07-30T10:57:58;101590.69;;;21.34;100.00
64352;BME280;50680;52.626;-8.668;2022-07-30T11:00:27;101588.56;;;21.28;100.00
64352;BME280;50680;52.626;-8.668;2022-07-30T11:05:43;101597.81;;;21.24;100.00
64352;BME280;50680;52.626;-8.668;2022-07-30T11:08:33;101598.09;;;21.11;100.00
64352;BME280;50680;52.626;-8.668;2022-07-30T11:14:16;101593.34;;;21.34;100.00
64352;BME280;50680;52.626;-8.668;2022-07-30T11:19:15;101579.59;;;21.58;100.00
64352;BME280;50680;52.626;-8.668;2022-07-30T11:22:25;101576.78;;;21.70;100.00
64352;BME280;50680;52.626;-8.668;2022-07-30T11:24:55;101578.28;;;21.92;100.00
64352;BME280;50680;52.626;-8.668;2022-07-30T11:27:44;101577.91;;;22.14;100.00
64352;BME280;50680;52.626;-8.668;2022-07-30T11:32:51;101576.91;;;22.63;100.00
64352;BME280;50680;52.626;-8.668;2022-07-30T11:35:36;101579.38;;;22.46;100.00
64352;BME280;50680;52.626;-8.668;2022-07-30T11:43:20;101590.25;;;22.35;100.00
64352;BME280;50680;52.626;-8.668;2022-07-30T11:46:16;101590.53;;;22.32;100.00
64352;BME280;50680;52.626;-8.668;2022-07-30T11:49:00;101589.06;;;22.00;100.00
64352;BME280;50680;52.626;-8.668;2022-07-30T11:51:41;101588.38;;;21.98;100.00
64352;BME280;50680;52.626;-8.668;2022-07-30T11:54:09;101581.63;;;21.94;100.00
64352;BME280;50680;52.626;-8.668;2022-07-30T11:56:50;101583.19;;;21.87;100.00
64352;BME280;50680;52.626;-8.668;2022-07-30T11:59:18;101588.53;;;21.87;100.00
64352;BME280;50680;52.626;-8.668;2022-07-30T12:01:51;101580.44;;;21.69;100.00
64352;BME280;50680;52.626;-8.668;2022-07-30T12:04:18;101582.13;;;21.70;100.00
64352;BME280;50680;52.626;-8.668;2022-07-30T12:06:46;101584.38;;;21.65;100.00
64352;BME280;50680;52.626;-8.668;2022-07-30T12:09:21;101587.88;;;21.65;100.00
64352;BME280;50680;52.626;-8.668;2022-07-30T12:11:53;101586.34;;;21.53;100.00
64352;BME280;50680;52.626;-8.668;2022-07-30T12:14:21;101585.09;;;21.57;100.00
64352;BME280;50680;52.626;-8.668;2022-07-30T12:16:50;101583.97;;;21.50;100.00
64352;BME280;50680;52.626;-8.668;2022-07-30T12:19:17;101583.28;;;21.48;100.00
64352;BME280;50680;52.626;-8.668;2022-07-30T12:21:44;101591.13;;;21.59;100.00
64352;BME280;50680;52.626;-8.668;2022-07-30T12:24:24;101594.34;;;21.63;100.00
64352;BME280;50680;52.626;-8.668;2022-07-30T12:27:03;101584.09;;;21.58;100.00
64352;BME280;50680;52.626;-8.668;2022-07-30T12:29:32;101590.28;;;21.58;100.00
64352;BME280;50680;52.626;-8.668;2022-07-30T12:31:59;101596.44;;;21.59;100.00
64352;BME280;50680;52.626;-8.668;2022-07-30T12:34:27;101590.81;;;21.52;100.00
64352;BME280;50680;52.626;-8.668;2022-07-30T12:36:54;101590.28;;;21.49;100.00
64352;BME280;50680;52.626;-8.668;2022-07-30T12:39:23;101583.97;;;21.50;100.00
64352;BME280;50680;52.626;-8.668;2022-07-30T12:41:52;101586.78;;;21.58;100.00
64352;BME280;50680;52.626;-8.668;2022-07-30T12:44:41;101589.31;;;21.50;100.00
64352;BME280;50680;52.626;-8.668;2022-07-30T12:47:27;101589.88;;;21.53;100.00
64352;BME280;50680;52.626;-8.668;2022-07-30T12:49:55;101587.75;;;21.57;100.00
64352;BME280;50680;52.626;-8.668;2022-07-30T12:52:28;101586.63;;;21.50;100.00
64352;BME280;50680;52.626;-8.668;2022-07-30T12:55:04;101593.50;;;21.42;100.00
64352;BME280;50680;52.626;-8.668;2022-07-30T12:58:03;101602.63;;;21.30;100.00
64352;BME280;50680;52.626;-8.668;2022-07-30T13:03:25;101594.44;;;21.02;100.00
64352;BME280;50680;52.626;-8.668;2022-07-30T13:05:54;101596.69;;;20.97;100.00
64352;BME280;50680;52.626;-8.668;2022-07-30T13:08:53;101598.19;;;20.90;100.00
64352;BME280;50680;52.626;-8.668;2022-07-30T13:13:51;101605.72;;;20.65;100.00
64352;BME280;50680;52.626;-8.668;2022-07-30T13:16:19;101598.56;;;20.66;100.00
64352;BME280;50680;52.626;-8.668;2022-07-30T13:18:46;101602.34;;;20.63;100.00